CSN6765 ZJHK-ZSSS
Flight info
| Callsign | CSN6765 |
|---|---|
| Flight time | N/A |
| Altitude | 37100 |
| Route | SAMAS9XD SAMAS G221 BIGRO R200 BEBEM A470 LJG B221 SHZ G204 JTN |
| Aircraft | B77W/H-SDE1E2E3FGHIJ2J3J4J5M1RWXY/LB1D1 |
Departure
| Time | 2026-05-08 08:50 |
|---|---|
| Airport | Haikou Meilan International Airport (ZJHK) |
Arrival
| Time | N/A |
|---|---|
| Airport | Shanghai Hongqiao International Airport (ZSSS) |
| Time | Latitude | Longitude | Altitude | Speed | Heading |
|---|---|---|---|---|---|
| 2026-05-08 08:26 | 19.94918 | 110.46188 | 72 ft | 0 kts | 270° |
| 2026-05-08 08:35 | 19.94918 | 110.46189 | 71 ft | 0 kts | 270° |
| 2026-05-08 08:36 | 19.94918 | 110.46190 | 71 ft | 1 kts | 270° |
| 2026-05-08 08:36 | 19.94917 | 110.46206 | 70 ft | 2 kts | 265° |
| 2026-05-08 08:37 | 19.94920 | 110.46222 | 70 ft | 2 kts | 249° |
| 2026-05-08 08:37 | 19.94927 | 110.46236 | 69 ft | 2 kts | 235° |
| 2026-05-08 08:37 | 19.94936 | 110.46249 | 69 ft | 2 kts | 222° |
| 2026-05-08 08:37 | 19.94948 | 110.46259 | 69 ft | 2 kts | 209° |
| 2026-05-08 08:38 | 19.94962 | 110.46265 | 70 ft | 2 kts | 197° |
| 2026-05-08 08:38 | 19.94977 | 110.46268 | 71 ft | 2 kts | 183° |
| 2026-05-08 08:38 | 19.94992 | 110.46268 | 71 ft | 2 kts | 177° |
| 2026-05-08 08:38 | 19.95007 | 110.46268 | 72 ft | 2 kts | 179° |
| 2026-05-08 08:39 | 19.95022 | 110.46268 | 72 ft | 2 kts | 180° |
| 2026-05-08 08:39 | 19.95037 | 110.46268 | 72 ft | 2 kts | 180° |
| 2026-05-08 08:39 | 19.95052 | 110.46268 | 72 ft | 2 kts | 180° |
| 2026-05-08 08:39 | 19.95067 | 110.46268 | 72 ft | 2 kts | 180° |
| 2026-05-08 08:40 | 19.95082 | 110.46268 | 72 ft | 2 kts | 180° |
| 2026-05-08 08:40 | 19.95098 | 110.46268 | 71 ft | 2 kts | 184° |
| 2026-05-08 08:40 | 19.95112 | 110.46273 | 71 ft | 2 kts | 221° |
| 2026-05-08 08:40 | 19.95121 | 110.46285 | 70 ft | 2 kts | 249° |
| 2026-05-08 08:41 | 19.95124 | 110.46301 | 70 ft | 2 kts | 274° |
| 2026-05-08 08:41 | 19.95123 | 110.46317 | 69 ft | 2 kts | 273° |
| 2026-05-08 08:41 | 19.95122 | 110.46333 | 69 ft | 2 kts | 270° |
| 2026-05-08 08:41 | 19.95122 | 110.46337 | 68 ft | 0 kts | 270° |
| 2026-05-08 08:43 | 19.95122 | 110.46336 | 68 ft | 0 kts | 270° |
| 2026-05-08 08:43 | 19.95122 | 110.46335 | 68 ft | 1 kts | 270° |
| 2026-05-08 08:43 | 19.95123 | 110.46316 | 69 ft | 3 kts | 270° |
| 2026-05-08 08:44 | 19.95123 | 110.46282 | 70 ft | 5 kts | 270° |
| 2026-05-08 08:44 | 19.95123 | 110.46229 | 72 ft | 8 kts | 269° |
| 2026-05-08 08:44 | 19.95122 | 110.46157 | 74 ft | 10 kts | 269° |
| 2026-05-08 08:44 | 19.95122 | 110.46079 | 78 ft | 9 kts | 269° |
| 2026-05-08 08:45 | 19.95122 | 110.46007 | 80 ft | 10 kts | 271° |
| 2026-05-08 08:45 | 19.95173 | 110.45965 | 79 ft | 12 kts | 355° |
| 2026-05-08 08:45 | 19.95203 | 110.45896 | 78 ft | 13 kts | 271° |
| 2026-05-08 08:45 | 19.95203 | 110.45789 | 78 ft | 15 kts | 270° |
| 2026-05-08 08:46 | 19.95203 | 110.45663 | 77 ft | 18 kts | 270° |
| 2026-05-08 08:46 | 19.95203 | 110.45520 | 76 ft | 20 kts | 269° |
| 2026-05-08 08:46 | 19.95202 | 110.45353 | 69 ft | 24 kts | 270° |
| 2026-05-08 08:46 | 19.95201 | 110.45161 | 64 ft | 25 kts | 270° |
| 2026-05-08 08:47 | 19.95201 | 110.44976 | 63 ft | 24 kts | 270° |
| 2026-05-08 08:47 | 19.95200 | 110.44861 | 65 ft | 7 kts | 270° |
| 2026-05-08 08:47 | 19.95214 | 110.44825 | 66 ft | 3 kts | 327° |
| 2026-05-08 08:47 | 19.95232 | 110.44819 | 67 ft | 1 kts | 352° |
| 2026-05-08 08:48 | 19.95247 | 110.44818 | 67 ft | 3 kts | 359° |
| 2026-05-08 08:48 | 19.95295 | 110.44819 | 66 ft | 9 kts | 1° |
| 2026-05-08 08:48 | 19.95356 | 110.44868 | 64 ft | 10 kts | 54° |
| 2026-05-08 08:48 | 19.95373 | 110.44938 | 63 ft | 7 kts | 90° |
| 2026-05-08 08:49 | 19.95373 | 110.44941 | 63 ft | 0 kts | 90° |
| 2026-05-08 08:49 | 19.95373 | 110.44943 | 63 ft | 0 kts | 90° |
| 2026-05-08 08:49 | 19.95373 | 110.44944 | 63 ft | 1 kts | 90° |
| 2026-05-08 08:49 | 19.95373 | 110.45129 | 63 ft | 58 kts | 89° |
| 2026-05-08 08:50 | 19.95375 | 110.45802 | 74 ft | 123 kts | 89° |
| 2026-05-08 08:50 | 19.95378 | 110.46937 | 132 ft | 172 kts | 88° |
| 2026-05-08 08:50 | 19.95380 | 110.48200 | 729 ft | 175 kts | 88° |
| 2026-05-08 08:50 | 19.95401 | 110.49529 | 1338 ft | 186 kts | 81° |
| 2026-05-08 08:51 | 19.95925 | 110.50830 | 1611 ft | 206 kts | 47° |
| 2026-05-08 08:51 | 19.97150 | 110.51757 | 1954 ft | 224 kts | 32° |
| 2026-05-08 08:51 | 19.98574 | 110.52627 | 2373 ft | 242 kts | 31° |
| 2026-05-08 08:51 | 20.00096 | 110.53550 | 2805 ft | 259 kts | 31° |
| 2026-05-08 08:52 | 20.01664 | 110.54500 | 3575 ft | 261 kts | 30° |
| 2026-05-08 08:52 | 20.03245 | 110.55456 | 4314 ft | 265 kts | 30° |
| 2026-05-08 08:52 | 20.04867 | 110.56438 | 5032 ft | 269 kts | 30° |
| 2026-05-08 08:52 | 20.06495 | 110.57424 | 5792 ft | 271 kts | 30° |
| 2026-05-08 08:53 | 20.08126 | 110.58413 | 6492 ft | 274 kts | 30° |
| 2026-05-08 08:53 | 20.09901 | 110.59238 | 7154 ft | 279 kts | 11° |
| 2026-05-08 08:53 | 20.11854 | 110.59248 | 7741 ft | 285 kts | 351° |
| 2026-05-08 08:53 | 20.13802 | 110.58818 | 8448 ft | 286 kts | 346° |
| 2026-05-08 08:54 | 20.15742 | 110.58322 | 9148 ft | 288 kts | 346° |
| 2026-05-08 08:54 | 20.17705 | 110.57816 | 9780 ft | 292 kts | 345° |
| 2026-05-08 08:54 | 20.19702 | 110.57302 | 10307 ft | 300 kts | 346° |
| 2026-05-08 08:54 | 20.21779 | 110.56777 | 10615 ft | 318 kts | 346° |
| 2026-05-08 08:55 | 20.24004 | 110.56216 | 10973 ft | 334 kts | 346° |
| 2026-05-08 08:55 | 20.26337 | 110.55626 | 11375 ft | 349 kts | 346° |
| 2026-05-08 08:55 | 20.28742 | 110.55017 | 11749 ft | 364 kts | 346° |
| 2026-05-08 08:55 | 20.31284 | 110.54373 | 12178 ft | 378 kts | 346° |
| 2026-05-08 08:56 | 20.33876 | 110.53716 | 12721 ft | 388 kts | 346° |
| 2026-05-08 08:56 | 20.36512 | 110.53048 | 13429 ft | 393 kts | 345° |
| 2026-05-08 08:56 | 20.39198 | 110.52367 | 14173 ft | 398 kts | 345° |
| 2026-05-08 08:56 | 20.41921 | 110.51708 | 14917 ft | 405 kts | 349° |
| 2026-05-08 08:57 | 20.44734 | 110.51429 | 15670 ft | 411 kts | 359° |
| 2026-05-08 08:57 | 20.47630 | 110.51669 | 16435 ft | 418 kts | 8° |
| 2026-05-08 08:57 | 20.50455 | 110.52441 | 17185 ft | 424 kts | 19° |
| 2026-05-08 08:57 | 20.53160 | 110.53746 | 17914 ft | 429 kts | 29° |
| 2026-05-08 08:58 | 20.55624 | 110.55559 | 18671 ft | 434 kts | 39° |
| 2026-05-08 08:58 | 20.57762 | 110.57826 | 19393 ft | 438 kts | 49° |
| 2026-05-08 08:58 | 20.59684 | 110.60362 | 20090 ft | 443 kts | 50° |
| 2026-05-08 08:58 | 20.61618 | 110.62928 | 20811 ft | 446 kts | 50° |
| 2026-05-08 08:59 | 20.63581 | 110.65486 | 21505 ft | 448 kts | 50° |
| 2026-05-08 08:59 | 20.65600 | 110.68084 | 22162 ft | 452 kts | 49° |
| 2026-05-08 08:59 | 20.67602 | 110.70635 | 22761 ft | 457 kts | 49° |
| 2026-05-08 08:59 | 20.69665 | 110.73249 | 23433 ft | 459 kts | 49° |
| 2026-05-08 09:00 | 20.71717 | 110.75838 | 24081 ft | 462 kts | 49° |
| 2026-05-08 09:00 | 20.73828 | 110.78493 | 24689 ft | 466 kts | 49° |
| 2026-05-08 09:00 | 20.75926 | 110.81127 | 25282 ft | 470 kts | 48° |
| 2026-05-08 09:00 | 20.78051 | 110.83792 | 25868 ft | 474 kts | 49° |
| 2026-05-08 09:01 | 20.80209 | 110.86498 | 26468 ft | 477 kts | 49° |
| 2026-05-08 09:01 | 20.82371 | 110.89206 | 27076 ft | 481 kts | 49° |
| 2026-05-08 09:01 | 20.84538 | 110.91920 | 27668 ft | 484 kts | 49° |
| 2026-05-08 09:01 | 20.86719 | 110.94654 | 28232 ft | 487 kts | 49° |
| 2026-05-08 09:02 | 20.88948 | 110.97447 | 28761 ft | 492 kts | 49° |
| 2026-05-08 09:02 | 20.91152 | 111.00210 | 29317 ft | 495 kts | 49° |
| 2026-05-08 09:02 | 20.93382 | 111.03007 | 29945 ft | 497 kts | 49° |
| 2026-05-08 09:02 | 20.95633 | 111.05831 | 30663 ft | 496 kts | 48° |
| 2026-05-08 09:03 | 20.97874 | 111.08626 | 31422 ft | 494 kts | 48° |
| 2026-05-08 09:03 | 21.00121 | 111.11420 | 32125 ft | 493 kts | 47° |
| 2026-05-08 09:03 | 21.02368 | 111.14217 | 32806 ft | 492 kts | 47° |
| 2026-05-08 09:03 | 21.04589 | 111.16982 | 33494 ft | 491 kts | 47° |
| 2026-05-08 09:04 | 21.06793 | 111.19728 | 34256 ft | 488 kts | 47° |
| 2026-05-08 09:04 | 21.09004 | 111.22485 | 35040 ft | 484 kts | 47° |
| 2026-05-08 09:04 | 21.11196 | 111.25219 | 35787 ft | 481 kts | 46° |
| 2026-05-08 09:04 | 21.13392 | 111.27959 | 36394 ft | 479 kts | 46° |
| 2026-05-08 09:05 | 21.15581 | 111.30692 | 36883 ft | 479 kts | 46° |
| 2026-05-08 09:05 | 21.17801 | 111.33464 | 37009 ft | 483 kts | 46° |
| 2026-05-08 09:05 | 21.22158 | 111.38911 | 37014 ft | 480 kts | 46° |
| 2026-05-08 09:06 | 21.26550 | 111.44408 | 37012 ft | 480 kts | 46° |
| 2026-05-08 09:06 | 21.30893 | 111.49848 | 37002 ft | 479 kts | 46° |
| 2026-05-08 09:07 | 21.35255 | 111.55318 | 36992 ft | 479 kts | 46° |
| 2026-05-08 09:07 | 21.39595 | 111.60765 | 36991 ft | 479 kts | 46° |
| 2026-05-08 09:08 | 21.43962 | 111.66251 | 36988 ft | 479 kts | 47° |
| 2026-05-08 09:08 | 21.48276 | 111.71677 | 36988 ft | 480 kts | 47° |
| 2026-05-08 09:09 | 21.52660 | 111.77197 | 36989 ft | 479 kts | 47° |
| 2026-05-08 09:09 | 21.56774 | 111.82806 | 36985 ft | 483 kts | 56° |
| 2026-05-08 09:10 | 21.59699 | 111.89386 | 36986 ft | 487 kts | 64° |
| 2026-05-08 09:10 | 21.62377 | 111.96059 | 36994 ft | 487 kts | 64° |
| 2026-05-08 09:11 | 21.65051 | 112.02737 | 37001 ft | 488 kts | 64° |
| 2026-05-08 09:11 | 21.67746 | 112.09473 | 37007 ft | 487 kts | 64° |
| 2026-05-08 09:12 | 21.70420 | 112.16167 | 37006 ft | 487 kts | 64° |
| 2026-05-08 09:12 | 21.73082 | 112.22840 | 37007 ft | 487 kts | 64° |
| 2026-05-08 09:13 | 21.75768 | 112.29582 | 37008 ft | 488 kts | 64° |
| 2026-05-08 09:13 | 21.78442 | 112.36303 | 37011 ft | 489 kts | 64° |
| 2026-05-08 09:14 | 21.81126 | 112.43060 | 37008 ft | 488 kts | 64° |
| 2026-05-08 09:14 | 21.83807 | 112.49819 | 37011 ft | 489 kts | 64° |
| 2026-05-08 09:15 | 21.86473 | 112.56534 | 37015 ft | 491 kts | 64° |
| 2026-05-08 09:15 | 21.89220 | 112.63320 | 37019 ft | 490 kts | 63° |
| 2026-05-08 09:16 | 21.91938 | 112.70043 | 37015 ft | 490 kts | 64° |
| 2026-05-08 09:16 | 21.94660 | 112.76790 | 37019 ft | 491 kts | 64° |
| 2026-05-08 09:17 | 21.97368 | 112.83521 | 37018 ft | 491 kts | 64° |
| 2026-05-08 09:17 | 22.00030 | 112.90348 | 37016 ft | 492 kts | 65° |
| 2026-05-08 09:18 | 22.02667 | 112.97131 | 37012 ft | 492 kts | 64° |
| 2026-05-08 09:18 | 22.05389 | 113.03951 | 37010 ft | 492 kts | 63° |
| 2026-05-08 09:19 | 22.08202 | 113.10668 | 37015 ft | 491 kts | 63° |
| 2026-05-08 09:19 | 22.11038 | 113.17463 | 37024 ft | 494 kts | 63° |
| 2026-05-08 09:20 | 22.13836 | 113.24188 | 37029 ft | 494 kts | 63° |
| 2026-05-08 09:20 | 22.16406 | 113.30960 | 37032 ft | 497 kts | 65° |
| 2026-05-08 09:21 | 22.18948 | 113.37884 | 37028 ft | 496 kts | 65° |
| 2026-05-08 09:22 | 22.30311 | 113.56078 | 37016 ft | 485 kts | 43° |
| 2026-05-08 09:23 | 22.32649 | 113.58794 | 37021 ft | 487 kts | 43° |
| 2026-05-08 09:23 | 22.37275 | 113.64166 | 37020 ft | 489 kts | 43° |
| 2026-05-08 09:24 | 22.41913 | 113.69556 | 37007 ft | 487 kts | 43° |
| 2026-05-08 09:24 | 22.46560 | 113.74960 | 37009 ft | 493 kts | 43° |
| 2026-05-08 09:25 | 22.51240 | 113.80409 | 37010 ft | 490 kts | 43° |
| 2026-05-08 09:25 | 22.55886 | 113.85822 | 37013 ft | 490 kts | 43° |
| 2026-05-08 09:26 | 22.60537 | 113.91248 | 37012 ft | 490 kts | 43° |
| 2026-05-08 09:26 | 22.65184 | 113.96672 | 37015 ft | 491 kts | 43° |
| 2026-05-08 09:27 | 22.69295 | 114.02642 | 37007 ft | 498 kts | 59° |
| 2026-05-08 09:27 | 22.71624 | 114.09847 | 36999 ft | 508 kts | 77° |
| 2026-05-08 09:28 | 22.72494 | 114.17451 | 36989 ft | 512 kts | 81° |
| 2026-05-08 09:28 | 22.73275 | 114.25128 | 37010 ft | 511 kts | 81° |
| 2026-05-08 09:29 | 22.74057 | 114.32783 | 37005 ft | 512 kts | 81° |
| 2026-05-08 09:29 | 22.74844 | 114.40488 | 37010 ft | 512 kts | 81° |
| 2026-05-08 09:30 | 22.75628 | 114.48177 | 37009 ft | 511 kts | 81° |
| 2026-05-08 09:30 | 22.76404 | 114.55803 | 37011 ft | 512 kts | 81° |
| 2026-05-08 09:31 | 22.77189 | 114.63471 | 37016 ft | 512 kts | 81° |
| 2026-05-08 09:31 | 22.77974 | 114.71190 | 37010 ft | 510 kts | 81° |
| 2026-05-08 09:32 | 22.78761 | 114.78820 | 37016 ft | 511 kts | 81° |
| 2026-05-08 09:32 | 22.79586 | 114.86540 | 37019 ft | 511 kts | 81° |
| 2026-05-08 09:33 | 22.80399 | 114.94192 | 37020 ft | 511 kts | 81° |
| 2026-05-08 09:33 | 22.81204 | 115.01810 | 37026 ft | 513 kts | 81° |
| 2026-05-08 09:34 | 22.82011 | 115.09493 | 37024 ft | 510 kts | 81° |
| 2026-05-08 09:34 | 22.82814 | 115.17165 | 37032 ft | 512 kts | 81° |
| 2026-05-08 09:35 | 22.83614 | 115.24855 | 37034 ft | 512 kts | 81° |
| 2026-05-08 09:35 | 22.84411 | 115.32555 | 37042 ft | 512 kts | 81° |
| 2026-05-08 09:36 | 22.85203 | 115.40238 | 37056 ft | 513 kts | 81° |
| 2026-05-08 09:36 | 22.85995 | 115.47968 | 37059 ft | 512 kts | 81° |
| 2026-05-08 09:37 | 22.86779 | 115.55642 | 37067 ft | 513 kts | 81° |
| 2026-05-08 09:37 | 22.87556 | 115.63297 | 37055 ft | 512 kts | 81° |
| 2026-05-08 09:38 | 22.88331 | 115.70964 | 37042 ft | 511 kts | 81° |
| 2026-05-08 09:38 | 22.89105 | 115.78661 | 37040 ft | 513 kts | 81° |
| 2026-05-08 09:39 | 22.89873 | 115.86337 | 37046 ft | 514 kts | 81° |
| 2026-05-08 09:39 | 22.90664 | 115.94031 | 37049 ft | 513 kts | 80° |
| 2026-05-08 09:40 | 22.91476 | 116.01768 | 37054 ft | 515 kts | 80° |
| 2026-05-08 09:40 | 22.92277 | 116.09481 | 37057 ft | 514 kts | 80° |
| 2026-05-08 09:41 | 22.93070 | 116.17168 | 37054 ft | 513 kts | 81° |
| 2026-05-08 09:41 | 22.93855 | 116.24826 | 37043 ft | 511 kts | 80° |
| 2026-05-08 09:42 | 22.95630 | 116.32257 | 37037 ft | 505 kts | 62° |
| 2026-05-08 09:42 | 22.99252 | 116.38638 | 37034 ft | 492 kts | 44° |
| 2026-05-08 09:43 | 23.04286 | 116.43590 | 37047 ft | 486 kts | 33° |
| 2026-05-08 09:43 | 23.09646 | 116.48087 | 37046 ft | 482 kts | 32° |
| 2026-05-08 09:44 | 23.15000 | 116.52550 | 37051 ft | 482 kts | 32° |
| 2026-05-08 09:44 | 23.20331 | 116.56982 | 37052 ft | 484 kts | 32° |
| 2026-05-08 09:45 | 23.25735 | 116.61474 | 37055 ft | 484 kts | 32° |
| 2026-05-08 09:45 | 23.31108 | 116.65939 | 37051 ft | 486 kts | 32° |
| 2026-05-08 09:46 | 23.36375 | 116.70319 | 37047 ft | 485 kts | 32° |
| 2026-05-08 09:46 | 23.41779 | 116.74815 | 37056 ft | 487 kts | 32° |
| 2026-05-08 09:47 | 23.46832 | 116.79851 | 37061 ft | 491 kts | 41° |
| 2026-05-08 09:47 | 23.51608 | 116.85272 | 37073 ft | 496 kts | 41° |
| 2026-05-08 09:48 | 23.56377 | 116.90694 | 37071 ft | 493 kts | 41° |
| 2026-05-08 09:48 | 23.61151 | 116.96122 | 37073 ft | 496 kts | 41° |
| 2026-05-08 09:49 | 23.65938 | 117.01570 | 37082 ft | 497 kts | 41° |
| 2026-05-08 09:49 | 23.70724 | 117.07023 | 37082 ft | 496 kts | 41° |
| 2026-05-08 09:50 | 23.75488 | 117.12456 | 37086 ft | 497 kts | 41° |
| 2026-05-08 09:50 | 23.80500 | 117.17699 | 37086 ft | 493 kts | 36° |
| 2026-05-08 09:51 | 23.85644 | 117.22634 | 37088 ft | 495 kts | 36° |
| 2026-05-08 09:51 | 23.90813 | 117.27637 | 37094 ft | 494 kts | 36° |
| 2026-05-08 09:52 | 23.95973 | 117.32657 | 37109 ft | 496 kts | 36° |
| 2026-05-08 09:52 | 24.01239 | 117.37794 | 37123 ft | 509 kts | 36° |
| 2026-05-08 09:53 | 24.06562 | 117.43002 | 37135 ft | 522 kts | 36° |
| 2026-05-08 09:53 | 24.12103 | 117.48436 | 37139 ft | 530 kts | 36° |
| 2026-05-08 09:54 | 24.17269 | 117.54225 | 37138 ft | 534 kts | 42° |
| 2026-05-08 09:54 | 24.22297 | 117.60266 | 37129 ft | 535 kts | 42° |
| 2026-05-08 09:55 | 24.27316 | 117.66299 | 37116 ft | 537 kts | 43° |
| 2026-05-08 09:55 | 24.32383 | 117.72397 | 37112 ft | 536 kts | 43° |
| 2026-05-08 09:56 | 24.37425 | 117.78468 | 37110 ft | 537 kts | 43° |
| 2026-05-08 09:56 | 24.42475 | 117.84555 | 37119 ft | 536 kts | 43° |
| 2026-05-08 09:57 | 24.49999 | 117.93638 | 37129 ft | 536 kts | 43° |
| 2026-05-08 09:57 | 24.55064 | 117.99761 | 37130 ft | 537 kts | 43° |
| 2026-05-08 09:58 | 24.60144 | 118.05717 | 37132 ft | 534 kts | 40° |
| 2026-05-08 09:58 | 24.65391 | 118.11639 | 37136 ft | 535 kts | 40° |
| 2026-05-08 09:59 | 24.70581 | 118.17518 | 37130 ft | 536 kts | 40° |
| 2026-05-08 09:59 | 24.75818 | 118.23473 | 37132 ft | 536 kts | 40° |
| 2026-05-08 10:00 | 24.81025 | 118.29407 | 37131 ft | 537 kts | 40° |
| 2026-05-08 10:00 | 24.86208 | 118.35325 | 37135 ft | 537 kts | 40° |
| 2026-05-08 10:01 | 24.91429 | 118.41295 | 37135 ft | 537 kts | 40° |
| 2026-05-08 10:01 | 24.96597 | 118.47214 | 37137 ft | 536 kts | 40° |
| 2026-05-08 10:02 | 25.01833 | 118.53218 | 37139 ft | 537 kts | 40° |
| 2026-05-08 10:02 | 25.07022 | 118.59177 | 37149 ft | 537 kts | 40° |
| 2026-05-08 10:03 | 25.12152 | 118.65168 | 37156 ft | 539 kts | 42° |
| 2026-05-08 10:03 | 25.17241 | 118.71326 | 37138 ft | 539 kts | 42° |
| 2026-05-08 10:04 | 25.22195 | 118.77325 | 37142 ft | 540 kts | 42° |
| 2026-05-08 10:04 | 25.27124 | 118.83293 | 37149 ft | 541 kts | 42° |
| 2026-05-08 10:05 | 25.32225 | 118.89473 | 37155 ft | 542 kts | 42° |
| 2026-05-08 10:05 | 25.37332 | 118.95571 | 37176 ft | 540 kts | 40° |
| 2026-05-08 10:06 | 25.42541 | 119.01632 | 37180 ft | 542 kts | 40° |
| 2026-05-08 10:06 | 25.47768 | 119.07730 | 37184 ft | 541 kts | 40° |
| 2026-05-08 10:07 | 25.52953 | 119.13791 | 37183 ft | 541 kts | 40° |
| 2026-05-08 10:07 | 25.58157 | 119.19887 | 37184 ft | 541 kts | 40° |
| 2026-05-08 10:08 | 25.63341 | 119.25968 | 37188 ft | 541 kts | 40° |
| 2026-05-08 10:08 | 25.68540 | 119.32076 | 37194 ft | 542 kts | 40° |
| 2026-05-08 10:09 | 25.74190 | 119.37411 | 37186 ft | 526 kts | 25° |
| 2026-05-08 10:09 | 25.80740 | 119.40733 | 37193 ft | 509 kts | 10° |
| 2026-05-08 10:10 | 25.87516 | 119.43070 | 37198 ft | 507 kts | 9° |
| 2026-05-08 10:10 | 25.94308 | 119.45385 | 37200 ft | 509 kts | 9° |
| 2026-05-08 10:11 | 26.01141 | 119.47714 | 37202 ft | 510 kts | 9° |
| 2026-05-08 10:11 | 26.07953 | 119.50037 | 37200 ft | 508 kts | 9° |
| 2026-05-08 10:12 | 26.14767 | 119.52362 | 37209 ft | 509 kts | 9° |
| 2026-05-08 10:12 | 26.21443 | 119.54821 | 37210 ft | 516 kts | 16° |
| 2026-05-08 10:13 | 26.27880 | 119.58906 | 37213 ft | 528 kts | 24° |
| 2026-05-08 10:13 | 26.34115 | 119.63281 | 37218 ft | 528 kts | 24° |
| 2026-05-08 10:14 | 26.40375 | 119.67677 | 37198 ft | 528 kts | 25° |
| 2026-05-08 10:14 | 26.46602 | 119.72048 | 37204 ft | 530 kts | 25° |
| 2026-05-08 10:15 | 26.52459 | 119.76161 | 37207 ft | 529 kts | 25° |
| 2026-05-08 10:15 | 26.58689 | 119.80538 | 37207 ft | 528 kts | 25° |
| 2026-05-08 10:16 | 26.64954 | 119.84943 | 37215 ft | 528 kts | 25° |
| 2026-05-08 10:16 | 26.71193 | 119.89336 | 37215 ft | 530 kts | 24° |
| 2026-05-08 10:17 | 26.77478 | 119.93767 | 37225 ft | 529 kts | 24° |
| 2026-05-08 10:17 | 26.83697 | 119.98156 | 37230 ft | 531 kts | 24° |
| 2026-05-08 10:18 | 26.89952 | 120.02580 | 37229 ft | 530 kts | 24° |
| 2026-05-08 10:18 | 26.96211 | 120.07018 | 37231 ft | 529 kts | 24° |
| 2026-05-08 10:19 | 27.02500 | 120.11481 | 37233 ft | 530 kts | 24° |
| 2026-05-08 10:20 | 27.11845 | 120.18125 | 37242 ft | 531 kts | 24° |
| 2026-05-08 10:20 | 27.18010 | 120.22486 | 37243 ft | 530 kts | 24° |
| 2026-05-08 10:21 | 27.24164 | 120.26827 | 37228 ft | 531 kts | 24° |
| 2026-05-08 10:21 | 27.30468 | 120.31281 | 37235 ft | 532 kts | 24° |
| 2026-05-08 10:22 | 27.36735 | 120.35717 | 37241 ft | 532 kts | 24° |
| 2026-05-08 10:22 | 27.43029 | 120.40187 | 37238 ft | 532 kts | 23° |
| 2026-05-08 10:23 | 27.49292 | 120.44644 | 37238 ft | 531 kts | 23° |
| 2026-05-08 10:23 | 27.55586 | 120.49129 | 37243 ft | 531 kts | 23° |
| 2026-05-08 10:24 | 27.61865 | 120.53608 | 37244 ft | 532 kts | 23° |
| 2026-05-08 10:24 | 27.68171 | 120.58112 | 37245 ft | 535 kts | 23° |
| 2026-05-08 10:25 | 27.74662 | 120.61884 | 37242 ft | 514 kts | 9° |
| 2026-05-08 10:25 | 27.78109 | 120.62948 | 37239 ft | 501 kts | 1° |
| 2026-05-08 10:25 | 27.81553 | 120.63477 | 37249 ft | 495 kts | 356° |
| 2026-05-08 10:26 | 27.88458 | 120.64188 | 37247 ft | 492 kts | 355° |
| 2026-05-08 10:26 | 27.95301 | 120.64855 | 37253 ft | 492 kts | 355° |
| 2026-05-08 10:27 | 28.02125 | 120.65507 | 37228 ft | 491 kts | 355° |
| 2026-05-08 10:27 | 28.09036 | 120.66184 | 37227 ft | 491 kts | 355° |
| 2026-05-08 10:28 | 28.15867 | 120.66861 | 37237 ft | 491 kts | 355° |
| 2026-05-08 10:28 | 28.22516 | 120.67516 | 37240 ft | 492 kts | 355° |
| 2026-05-08 10:29 | 28.29333 | 120.68188 | 37246 ft | 491 kts | 355° |
| 2026-05-08 10:29 | 28.36214 | 120.68865 | 37244 ft | 493 kts | 355° |
| 2026-05-08 10:30 | 28.43086 | 120.69544 | 37249 ft | 491 kts | 355° |
| 2026-05-08 10:30 | 28.49908 | 120.70224 | 37252 ft | 494 kts | 355° |
| 2026-05-08 10:31 | 28.56783 | 120.70918 | 37249 ft | 492 kts | 355° |
| 2026-05-08 10:31 | 28.63629 | 120.71609 | 37251 ft | 490 kts | 355° |
| 2026-05-08 10:32 | 28.70501 | 120.72302 | 37256 ft | 495 kts | 355° |
| 2026-05-08 10:32 | 28.77374 | 120.73057 | 37261 ft | 494 kts | 355° |
| 2026-05-08 10:33 | 28.84246 | 120.73816 | 37263 ft | 491 kts | 355° |
| 2026-05-08 10:33 | 28.91111 | 120.74543 | 37264 ft | 490 kts | 355° |
| 2026-05-08 10:33 | 28.94448 | 120.74892 | 37263 ft | 476 kts | 354° |
| 2026-05-08 10:34 | 28.97710 | 120.75234 | 37263 ft | 460 kts | 354° |
| 2026-05-08 10:34 | 29.04063 | 120.75884 | 37267 ft | 459 kts | 354° |
| 2026-05-08 10:35 | 29.10505 | 120.76540 | 37267 ft | 459 kts | 354° |
| 2026-05-08 10:35 | 29.16892 | 120.77197 | 37271 ft | 458 kts | 354° |
| 2026-05-08 10:35 | 29.20044 | 120.77526 | 36982 ft | 451 kts | 354° |
| 2026-05-08 10:36 | 29.23164 | 120.77848 | 36231 ft | 452 kts | 354° |
| 2026-05-08 10:36 | 29.26170 | 120.78156 | 35455 ft | 454 kts | 355° |
| 2026-05-08 10:36 | 29.29463 | 120.78495 | 34636 ft | 455 kts | 355° |
| 2026-05-08 10:36 | 29.32329 | 120.78791 | 33945 ft | 456 kts | 355° |
| 2026-05-08 10:37 | 29.35509 | 120.79120 | 33161 ft | 457 kts | 355° |
| 2026-05-08 10:37 | 29.38688 | 120.79449 | 32359 ft | 459 kts | 355° |
| 2026-05-08 10:37 | 29.41911 | 120.79778 | 31530 ft | 476 kts | 356° |
| 2026-05-08 10:37 | 29.45270 | 120.80118 | 30728 ft | 489 kts | 356° |
| 2026-05-08 10:38 | 29.48698 | 120.80479 | 30247 ft | 482 kts | 356° |
| 2026-05-08 10:38 | 29.52037 | 120.80833 | 29759 ft | 477 kts | 356° |
| 2026-05-08 10:38 | 29.55318 | 120.81177 | 29232 ft | 474 kts | 356° |
| 2026-05-08 10:38 | 29.58614 | 120.81764 | 28688 ft | 482 kts | 5° |
| 2026-05-08 10:39 | 29.61851 | 120.82958 | 28142 ft | 488 kts | 14° |
| 2026-05-08 10:39 | 29.64915 | 120.84661 | 27589 ft | 489 kts | 20° |
| 2026-05-08 10:39 | 29.67958 | 120.86521 | 27038 ft | 485 kts | 20° |
| 2026-05-08 10:39 | 29.70908 | 120.88335 | 26485 ft | 480 kts | 20° |
| 2026-05-08 10:40 | 29.73874 | 120.90160 | 25926 ft | 475 kts | 21° |
| 2026-05-08 10:40 | 29.76762 | 120.91937 | 25386 ft | 470 kts | 21° |
| 2026-05-08 10:40 | 29.79640 | 120.93708 | 24832 ft | 466 kts | 21° |
| 2026-05-08 10:40 | 29.82491 | 120.95462 | 24271 ft | 461 kts | 21° |
| 2026-05-08 10:41 | 29.85348 | 120.97221 | 23730 ft | 457 kts | 21° |
| 2026-05-08 10:41 | 29.88141 | 120.98940 | 23195 ft | 453 kts | 21° |
| 2026-05-08 10:41 | 29.90927 | 121.00655 | 22639 ft | 449 kts | 22° |
| 2026-05-08 10:41 | 29.93674 | 121.02348 | 22089 ft | 446 kts | 22° |
| 2026-05-08 10:42 | 29.96441 | 121.04054 | 21528 ft | 443 kts | 22° |
| 2026-05-08 10:42 | 29.99145 | 121.05723 | 20963 ft | 441 kts | 22° |
| 2026-05-08 10:42 | 30.01867 | 121.07407 | 20394 ft | 438 kts | 22° |
| 2026-05-08 10:42 | 30.04562 | 121.09074 | 19832 ft | 436 kts | 23° |
| 2026-05-08 10:43 | 30.07221 | 121.10720 | 19253 ft | 434 kts | 23° |
| 2026-05-08 10:43 | 30.09903 | 121.12382 | 18673 ft | 432 kts | 23° |
| 2026-05-08 10:43 | 30.12448 | 121.13959 | 18121 ft | 429 kts | 23° |
| 2026-05-08 10:43 | 30.14821 | 121.15431 | 17589 ft | 428 kts | 23° |
| 2026-05-08 10:44 | 30.17481 | 121.17082 | 16995 ft | 425 kts | 24° |
| 2026-05-08 10:44 | 30.20091 | 121.18703 | 16396 ft | 423 kts | 24° |
| 2026-05-08 10:44 | 30.22173 | 121.19996 | 15828 ft | 423 kts | 24° |
| 2026-05-08 10:44 | 30.24860 | 121.21465 | 15126 ft | 417 kts | 17° |
| 2026-05-08 10:45 | 30.27377 | 121.22271 | 14711 ft | 404 kts | 7° |
| 2026-05-08 10:45 | 30.29998 | 121.22698 | 14177 ft | 398 kts | 4° |
| 2026-05-08 10:45 | 30.32800 | 121.23073 | 13583 ft | 393 kts | 4° |
| 2026-05-08 10:45 | 30.35491 | 121.23426 | 13088 ft | 386 kts | 4° |
| 2026-05-08 10:46 | 30.38178 | 121.23776 | 12307 ft | 387 kts | 5° |
| 2026-05-08 10:46 | 30.40850 | 121.24125 | 11875 ft | 378 kts | 5° |
| 2026-05-08 10:46 | 30.43452 | 121.24464 | 11178 ft | 378 kts | 5° |
| 2026-05-08 10:46 | 30.46081 | 121.24808 | 10691 ft | 371 kts | 5° |
| 2026-05-08 10:47 | 30.48606 | 121.25161 | 10574 ft | 354 kts | 6° |
| 2026-05-08 10:47 | 30.51025 | 121.25501 | 10466 ft | 338 kts | 6° |
| 2026-05-08 10:47 | 30.53301 | 121.25821 | 10334 ft | 324 kts | 6° |
| 2026-05-08 10:47 | 30.55523 | 121.26131 | 10193 ft | 312 kts | 6° |
| 2026-05-08 10:48 | 30.57650 | 121.26428 | 10053 ft | 301 kts | 6° |
| 2026-05-08 10:48 | 30.59718 | 121.26716 | 9795 ft | 295 kts | 6° |
| 2026-05-08 10:48 | 30.61779 | 121.27003 | 9447 ft | 292 kts | 6° |
| 2026-05-08 10:48 | 30.63742 | 121.27277 | 9383 ft | 279 kts | 6° |
| 2026-05-08 10:49 | 30.65714 | 121.27551 | 8816 ft | 286 kts | 7° |
| 2026-05-08 10:49 | 30.67679 | 121.27826 | 8607 ft | 278 kts | 7° |
| 2026-05-08 10:49 | 30.69593 | 121.28093 | 8118 ft | 274 kts | 7° |
| 2026-05-08 10:49 | 30.71486 | 121.28358 | 7618 ft | 270 kts | 8° |
| 2026-05-08 10:50 | 30.73327 | 121.28615 | 7237 ft | 262 kts | 8° |
| 2026-05-08 10:50 | 30.75134 | 121.28867 | 6911 ft | 252 kts | 8° |
| 2026-05-08 10:50 | 30.76856 | 121.29108 | 6647 ft | 244 kts | 8° |
| 2026-05-08 10:50 | 30.78541 | 121.29344 | 6329 ft | 244 kts | 9° |
| 2026-05-08 10:51 | 30.80231 | 121.29582 | 6012 ft | 244 kts | 9° |
| 2026-05-08 10:51 | 30.81954 | 121.29823 | 5705 ft | 243 kts | 9° |
| 2026-05-08 10:51 | 30.83629 | 121.30057 | 5407 ft | 242 kts | 9° |
| 2026-05-08 10:51 | 30.85311 | 121.30387 | 5105 ft | 239 kts | 18° |
| 2026-05-08 10:52 | 30.86887 | 121.30967 | 4819 ft | 237 kts | 21° |
| 2026-05-08 10:52 | 30.88455 | 121.31576 | 4531 ft | 236 kts | 21° |
| 2026-05-08 10:52 | 30.89995 | 121.32173 | 4249 ft | 234 kts | 21° |
| 2026-05-08 10:52 | 30.91530 | 121.32768 | 3967 ft | 233 kts | 21° |
| 2026-05-08 10:53 | 30.93035 | 121.33353 | 3725 ft | 229 kts | 21° |
| 2026-05-08 10:53 | 30.94450 | 121.33901 | 3660 ft | 219 kts | 21° |
| 2026-05-08 10:53 | 30.95697 | 121.34385 | 3619 ft | 213 kts | 21° |
| 2026-05-08 10:53 | 30.97249 | 121.34801 | 3522 ft | 212 kts | 5° |
| 2026-05-08 10:54 | 30.98293 | 121.34792 | 3444 ft | 208 kts | 2° |
| 2026-05-08 10:54 | 30.99930 | 121.34702 | 3355 ft | 195 kts | 1° |
| 2026-05-08 10:54 | 31.01255 | 121.34626 | 3264 ft | 185 kts | 2° |
| 2026-05-08 10:54 | 31.02452 | 121.34563 | 3026 ft | 182 kts | 2° |
| 2026-05-08 10:55 | 31.03731 | 121.34495 | 2785 ft | 177 kts | 2° |
| 2026-05-08 10:55 | 31.04921 | 121.34433 | 2564 ft | 174 kts | 2° |
| 2026-05-08 10:55 | 31.06107 | 121.34369 | 2348 ft | 162 kts | 2° |
| 2026-05-08 10:55 | 31.07208 | 121.34309 | 2144 ft | 150 kts | 2° |
| 2026-05-08 10:56 | 31.08240 | 121.34256 | 1953 ft | 148 kts | 2° |
| 2026-05-08 10:56 | 31.09146 | 121.34207 | 1786 ft | 147 kts | 2° |
| 2026-05-08 10:56 | 31.10090 | 121.34158 | 1609 ft | 147 kts | 2° |
| 2026-05-08 10:56 | 31.10966 | 121.34109 | 1450 ft | 147 kts | 1° |
| 2026-05-08 10:57 | 31.12109 | 121.34047 | 1238 ft | 147 kts | 1° |
| 2026-05-08 10:57 | 31.12948 | 121.34001 | 1085 ft | 146 kts | 1° |
| 2026-05-08 10:57 | 31.14792 | 121.33894 | 723 ft | 148 kts | 0° |